sensor_id;sensor_type;location;lat;lon;timestamp;P1;durP1;ratioP1;P2;durP2;ratioP2
8098;SDS011;4092;47.876;9.372;2022-10-18T00:00:12;2.87;;;2.50;;
8098;SDS011;4092;47.876;9.372;2022-10-18T00:02:41;7.00;;;3.97;;
8098;SDS011;4092;47.876;9.372;2022-10-18T00:05:08;2.93;;;2.50;;
8098;SDS011;4092;47.876;9.372;2022-10-18T00:07:35;7.47;;;3.17;;
8098;SDS011;4092;47.876;9.372;2022-10-18T00:10:02;5.03;;;2.60;;
8098;SDS011;4092;47.876;9.372;2022-10-18T00:12:31;2.87;;;2.50;;
8098;SDS011;4092;47.876;9.372;2022-10-18T00:14:58;3.70;;;2.30;;
8098;SDS011;4092;47.876;9.372;2022-10-18T00:17:25;7.23;;;3.10;;
8098;SDS011;4092;47.876;9.372;2022-10-18T00:19:54;6.63;;;2.40;;
8098;SDS011;4092;47.876;9.372;2022-10-18T00:22:21;7.27;;;2.50;;
8098;SDS011;4092;47.876;9.372;2022-10-18T00:24:49;7.53;;;4.93;;
8098;SDS011;4092;47.876;9.372;2022-10-18T00:27:16;2.90;;;2.33;;
8098;SDS011;4092;47.876;9.372;2022-10-18T00:29:43;2.90;;;1.80;;
8098;SDS011;4092;47.876;9.372;2022-10-18T00:32:10;3.30;;;2.37;;
8098;SDS011;4092;47.876;9.372;2022-10-18T00:34:38;2.70;;;2.50;;
8098;SDS011;4092;47.876;9.372;2022-10-18T00:37:06;8.30;;;2.60;;
8098;SDS011;4092;47.876;9.372;2022-10-18T00:39:33;5.00;;;3.20;;
8098;SDS011;4092;47.876;9.372;2022-10-18T00:42:00;3.83;;;3.50;;
8098;SDS011;4092;47.876;9.372;2022-10-18T00:47:31;4.50;;;3.40;;
8098;SDS011;4092;47.876;9.372;2022-10-18T00:50:01;6.20;;;2.43;;
8098;SDS011;4092;47.876;9.372;2022-10-18T00:52:32;7.17;;;3.70;;
8098;SDS011;4092;47.876;9.372;2022-10-18T00:55:03;3.90;;;3.20;;
8098;SDS011;4092;47.876;9.372;2022-10-18T00:57:31;2.53;;;2.33;;
8098;SDS011;4092;47.876;9.372;2022-10-18T00:59:58;2.43;;;2.23;;
8098;SDS011;4092;47.876;9.372;2022-10-18T01:02:26;8.27;;;2.80;;
8098;SDS011;4092;47.876;9.372;2022-10-18T01:04:53;4.17;;;2.80;;
8098;SDS011;4092;47.876;9.372;2022-10-18T01:07:32;6.53;;;3.03;;
8098;SDS011;4092;47.876;9.372;2022-10-18T01:10:09;3.97;;;2.77;;
8098;SDS011;4092;47.876;9.372;2022-10-18T01:12:51;8.07;;;3.43;;
8098;SDS011;4092;47.876;9.372;2022-10-18T01:15:25;10.53;;;4.30;;
8098;SDS011;4092;47.876;9.372;2022-10-18T01:17:59;12.10;;;4.07;;
8098;SDS011;4092;47.876;9.372;2022-10-18T01:20:40;8.50;;;2.90;;
8098;SDS011;4092;47.876;9.372;2022-10-18T01:23:35;4.97;;;3.70;;
8098;SDS011;4092;47.876;9.372;2022-10-18T01:26:31;8.27;;;3.47;;
8098;SDS011;4092;47.876;9.372;2022-10-18T01:29:10;4.87;;;3.00;;
8098;SDS011;4092;47.876;9.372;2022-10-18T01:31:46;4.90;;;3.10;;
8098;SDS011;4092;47.876;9.372;2022-10-18T01:34:17;3.00;;;2.70;;
8098;SDS011;4092;47.876;9.372;2022-10-18T01:36:46;3.30;;;2.57;;
8098;SDS011;4092;47.876;9.372;2022-10-18T01:39:17;4.07;;;3.17;;
8098;SDS011;4092;47.876;9.372;2022-10-18T01:41:48;5.70;;;2.93;;
8098;SDS011;4092;47.876;9.372;2022-10-18T01:44:18;5.57;;;3.73;;
8098;SDS011;4092;47.876;9.372;2022-10-18T01:46:49;4.40;;;3.30;;
8098;SDS011;4092;47.876;9.372;2022-10-18T01:49:18;6.97;;;4.20;;
8098;SDS011;4092;47.876;9.372;2022-10-18T01:51:45;10.70;;;3.87;;
8098;SDS011;4092;47.876;9.372;2022-10-18T01:54:14;6.20;;;3.77;;
8098;SDS011;4092;47.876;9.372;2022-10-18T01:56:45;3.90;;;3.20;;
8098;SDS011;4092;47.876;9.372;2022-10-18T01:59:23;8.97;;;3.50;;
8098;SDS011;4092;47.876;9.372;2022-10-18T02:02:16;6.27;;;2.90;;
8098;SDS011;4092;47.876;9.372;2022-10-18T02:04:50;4.13;;;3.03;;
8098;SDS011;4092;47.876;9.372;2022-10-18T02:07:26;4.77;;;3.00;;
8098;SDS011;4092;47.876;9.372;2022-10-18T02:10:00;4.93;;;3.60;;
8098;SDS011;4092;47.876;9.372;2022-10-18T02:12:31;6.77;;;3.50;;
8098;SDS011;4092;47.876;9.372;2022-10-18T02:15:00;5.30;;;3.33;;
8098;SDS011;4092;47.876;9.372;2022-10-18T02:17:30;5.70;;;3.13;;
8098;SDS011;4092;47.876;9.372;2022-10-18T02:19:58;5.60;;;3.70;;
8098;SDS011;4092;47.876;9.372;2022-10-18T02:22:28;4.63;;;3.77;;
8098;SDS011;4092;47.876;9.372;2022-10-18T02:24:57;4.50;;;3.10;;
8098;SDS011;4092;47.876;9.372;2022-10-18T02:27:28;4.10;;;3.50;;
8098;SDS011;4092;47.876;9.372;2022-10-18T02:29:55;6.70;;;3.90;;
8098;SDS011;4092;47.876;9.372;2022-10-18T02:32:24;5.87;;;4.67;;
8098;SDS011;4092;47.876;9.372;2022-10-18T02:34:59;9.20;;;4.53;;
8098;SDS011;4092;47.876;9.372;2022-10-18T02:37:31;4.53;;;3.57;;
8098;SDS011;4092;47.876;9.372;2022-10-18T02:40:02;3.87;;;3.17;;
8098;SDS011;4092;47.876;9.372;2022-10-18T02:42:34;11.93;;;4.10;;
8098;SDS011;4092;47.876;9.372;2022-10-18T02:45:01;5.07;;;3.70;;
8098;SDS011;4092;47.876;9.372;2022-10-18T02:47:29;9.20;;;4.67;;
8098;SDS011;4092;47.876;9.372;2022-10-18T02:49:56;8.40;;;5.17;;
8098;SDS011;4092;47.876;9.372;2022-10-18T02:52:24;4.93;;;3.77;;
8098;SDS011;4092;47.876;9.372;2022-10-18T02:54:51;8.53;;;4.83;;
8098;SDS011;4092;47.876;9.372;2022-10-18T02:57:18;4.73;;;4.00;;
8098;SDS011;4092;47.876;9.372;2022-10-18T02:59:45;9.87;;;4.77;;
8098;SDS011;4092;47.876;9.372;2022-10-18T03:02:12;8.17;;;5.20;;
8098;SDS011;4092;47.876;9.372;2022-10-18T03:04:39;9.70;;;5.40;;
8098;SDS011;4092;47.876;9.372;2022-10-18T03:07:06;14.43;;;4.70;;
8098;SDS011;4092;47.876;9.372;2022-10-18T03:09:35;8.77;;;5.00;;
8098;SDS011;4092;47.876;9.372;2022-10-18T03:12:02;5.90;;;4.00;;
8098;SDS011;4092;47.876;9.372;2022-10-18T03:14:29;12.13;;;4.63;;
8098;SDS011;4092;47.876;9.372;2022-10-18T03:16:56;6.27;;;4.13;;
8098;SDS011;4092;47.876;9.372;2022-10-18T03:19:23;8.07;;;4.80;;
8098;SDS011;4092;47.876;9.372;2022-10-18T03:21:50;11.73;;;5.13;;
8098;SDS011;4092;47.876;9.372;2022-10-18T03:24:17;9.03;;;5.07;;
8098;SDS011;4092;47.876;9.372;2022-10-18T03:26:46;7.80;;;4.50;;
8098;SDS011;4092;47.876;9.372;2022-10-18T03:29:13;7.97;;;4.63;;
8098;SDS011;4092;47.876;9.372;2022-10-18T03:31:40;7.27;;;4.27;;
8098;SDS011;4092;47.876;9.372;2022-10-18T03:34:07;7.63;;;4.70;;
8098;SDS011;4092;47.876;9.372;2022-10-18T03:36:34;7.50;;;4.60;;
8098;SDS011;4092;47.876;9.372;2022-10-18T03:39:02;4.83;;;4.10;;
8098;SDS011;4092;47.876;9.372;2022-10-18T03:41:29;4.87;;;4.07;;
8098;SDS011;4092;47.876;9.372;2022-10-18T03:43:58;7.10;;;3.70;;
8098;SDS011;4092;47.876;9.372;2022-10-18T03:46:25;6.20;;;4.27;;
8098;SDS011;4092;47.876;9.372;2022-10-18T03:48:52;5.00;;;4.20;;
8098;SDS011;4092;47.876;9.372;2022-10-18T03:51:19;6.30;;;4.40;;
8098;SDS011;4092;47.876;9.372;2022-10-18T03:53:46;8.73;;;4.00;;
8098;SDS011;4092;47.876;9.372;2022-10-18T03:56:13;5.03;;;4.03;;
8098;SDS011;4092;47.876;9.372;2022-10-18T03:58:40;8.13;;;5.17;;
8098;SDS011;4092;47.876;9.372;2022-10-18T04:01:08;7.10;;;5.03;;
8098;SDS011;4092;47.876;9.372;2022-10-18T04:03:36;10.70;;;4.83;;
8098;SDS011;4092;47.876;9.372;2022-10-18T04:06:03;6.00;;;4.33;;
8098;SDS011;4092;47.876;9.372;2022-10-18T04:08:31;7.17;;;3.80;;
8098;SDS011;4092;47.876;9.372;2022-10-18T04:10:58;8.10;;;3.53;;
8098;SDS011;4092;47.876;9.372;2022-10-18T04:13:29;6.97;;;3.80;;
8098;SDS011;4092;47.876;9.372;2022-10-18T04:15:56;6.70;;;3.43;;
8098;SDS011;4092;47.876;9.372;2022-10-18T04:18:24;7.13;;;3.70;;
8098;SDS011;4092;47.876;9.372;2022-10-18T04:20:52;5.67;;;3.43;;
8098;SDS011;4092;47.876;9.372;2022-10-18T04:23:19;6.77;;;3.40;;
8098;SDS011;4092;47.876;9.372;2022-10-18T04:25:46;6.10;;;3.33;;
8098;SDS011;4092;47.876;9.372;2022-10-18T04:28:13;4.77;;;3.77;;
8098;SDS011;4092;47.876;9.372;2022-10-18T04:30:40;4.13;;;3.13;;
8098;SDS011;4092;47.876;9.372;2022-10-18T04:33:07;6.83;;;4.37;;
8098;SDS011;4092;47.876;9.372;2022-10-18T04:35:35;7.27;;;3.93;;
8098;SDS011;4092;47.876;9.372;2022-10-18T04:38:02;6.93;;;4.10;;
8098;SDS011;4092;47.876;9.372;2022-10-18T04:40:29;6.47;;;4.20;;
8098;SDS011;4092;47.876;9.372;2022-10-18T04:42:56;9.63;;;4.67;;
8098;SDS011;4092;47.876;9.372;2022-10-18T04:45:23;4.83;;;4.10;;
8098;SDS011;4092;47.876;9.372;2022-10-18T04:47:50;10.30;;;3.90;;
8098;SDS011;4092;47.876;9.372;2022-10-18T04:50:17;4.73;;;3.13;;
8098;SDS011;4092;47.876;9.372;2022-10-18T04:52:45;6.00;;;4.10;;
8098;SDS011;4092;47.876;9.372;2022-10-18T04:55:12;9.70;;;3.50;;
8098;SDS011;4092;47.876;9.372;2022-10-18T04:57:39;7.73;;;5.63;;
8098;SDS011;4092;47.876;9.372;2022-10-18T05:00:07;11.93;;;4.30;;
8098;SDS011;4092;47.876;9.372;2022-10-18T05:02:34;5.97;;;3.97;;
8098;SDS011;4092;47.876;9.372;2022-10-18T05:05:01;8.47;;;4.17;;
8098;SDS011;4092;47.876;9.372;2022-10-18T05:07:28;6.20;;;4.47;;
8098;SDS011;4092;47.876;9.372;2022-10-18T05:09:56;6.47;;;4.23;;
8098;SDS011;4092;47.876;9.372;2022-10-18T05:12:23;5.60;;;3.30;;
8098;SDS011;4092;47.876;9.372;2022-10-18T05:14:50;8.33;;;4.00;;
8098;SDS011;4092;47.876;9.372;2022-10-18T05:17:17;5.40;;;4.07;;
8098;SDS011;4092;47.876;9.372;2022-10-18T05:19:44;6.93;;;4.70;;
8098;SDS011;4092;47.876;9.372;2022-10-18T05:22:11;10.63;;;4.90;;
8098;SDS011;4092;47.876;9.372;2022-10-18T05:24:38;7.90;;;4.87;;
8098;SDS011;4092;47.876;9.372;2022-10-18T05:27:07;13.07;;;4.27;;
8098;SDS011;4092;47.876;9.372;2022-10-18T05:29:35;6.30;;;3.50;;
8098;SDS011;4092;47.876;9.372;2022-10-18T05:32:02;5.10;;;3.90;;
8098;SDS011;4092;47.876;9.372;2022-10-18T05:34:29;8.00;;;4.10;;
8098;SDS011;4092;47.876;9.372;2022-10-18T05:36:57;4.83;;;3.23;;
8098;SDS011;4092;47.876;9.372;2022-10-18T05:39:25;6.30;;;4.30;;
8098;SDS011;4092;47.876;9.372;2022-10-18T05:41:52;8.13;;;4.10;;
8098;SDS011;4092;47.876;9.372;2022-10-18T05:44:20;4.57;;;4.10;;
8098;SDS011;4092;47.876;9.372;2022-10-18T05:46:47;3.47;;;2.73;;
8098;SDS011;4092;47.876;9.372;2022-10-18T05:49:14;7.20;;;4.13;;
8098;SDS011;4092;47.876;9.372;2022-10-18T05:51:41;3.83;;;3.03;;
8098;SDS011;4092;47.876;9.372;2022-10-18T05:54:09;5.80;;;3.73;;
8098;SDS011;4092;47.876;9.372;2022-10-18T05:56:37;5.37;;;4.40;;
8098;SDS011;4092;47.876;9.372;2022-10-18T05:59:04;11.60;;;3.30;;
8098;SDS011;4092;47.876;9.372;2022-10-18T06:01:35;7.07;;;4.37;;
8098;SDS011;4092;47.876;9.372;2022-10-18T06:04:03;4.53;;;2.13;;
8098;SDS011;4092;47.876;9.372;2022-10-18T06:06:30;4.10;;;3.17;;
8098;SDS011;4092;47.876;9.372;2022-10-18T06:08:58;5.10;;;3.03;;
8098;SDS011;4092;47.876;9.372;2022-10-18T06:11:27;3.90;;;2.50;;
8098;SDS011;4092;47.876;9.372;2022-10-18T06:13:55;4.20;;;2.73;;
8098;SDS011;4092;47.876;9.372;2022-10-18T06:16:23;4.17;;;2.50;;
8098;SDS011;4092;47.876;9.372;2022-10-18T06:18:53;4.37;;;3.97;;
8098;SDS011;4092;47.876;9.372;2022-10-18T06:21:21;5.63;;;3.00;;
8098;SDS011;4092;47.876;9.372;2022-10-18T06:23:49;5.13;;;3.20;;
8098;SDS011;4092;47.876;9.372;2022-10-18T06:26:17;8.93;;;3.43;;
8098;SDS011;4092;47.876;9.372;2022-10-18T06:28:44;5.20;;;2.50;;
8098;SDS011;4092;47.876;9.372;2022-10-18T06:31:12;4.83;;;2.53;;
8098;SDS011;4092;47.876;9.372;2022-10-18T06:33:39;5.20;;;3.10;;
8098;SDS011;4092;47.876;9.372;2022-10-18T06:36:09;4.80;;;2.27;;
8098;SDS011;4092;47.876;9.372;2022-10-18T06:38:40;8.10;;;3.93;;
8098;SDS011;4092;47.876;9.372;2022-10-18T06:41:08;3.80;;;2.70;;
8098;SDS011;4092;47.876;9.372;2022-10-18T06:43:35;3.77;;;2.80;;
8098;SDS011;4092;47.876;9.372;2022-10-18T06:46:03;2.60;;;2.00;;
8098;SDS011;4092;47.876;9.372;2022-10-18T06:48:32;4.70;;;2.33;;
8098;SDS011;4092;47.876;9.372;2022-10-18T06:51:00;4.90;;;2.83;;
8098;SDS011;4092;47.876;9.372;2022-10-18T06:53:30;5.13;;;3.87;;
8098;SDS011;4092;47.876;9.372;2022-10-18T06:55:59;4.47;;;3.03;;
8098;SDS011;4092;47.876;9.372;2022-10-18T06:58:26;5.77;;;3.13;;
8098;SDS011;4092;47.876;9.372;2022-10-18T07:00:54;4.17;;;2.73;;
8098;SDS011;4092;47.876;9.372;2022-10-18T07:03:21;4.57;;;2.70;;
8098;SDS011;4092;47.876;9.372;2022-10-18T07:05:48;7.87;;;2.53;;
8098;SDS011;4092;47.876;9.372;2022-10-18T07:08:15;6.83;;;3.57;;
8098;SDS011;4092;47.876;9.372;2022-10-18T07:10:50;3.90;;;2.40;;
8098;SDS011;4092;47.876;9.372;2022-10-18T07:13:18;2.47;;;2.20;;
8098;SDS011;4092;47.876;9.372;2022-10-18T07:15:45;9.00;;;2.77;;
8098;SDS011;4092;47.876;9.372;2022-10-18T07:18:12;7.13;;;3.47;;
8098;SDS011;4092;47.876;9.372;2022-10-18T07:20:39;5.10;;;2.97;;
8098;SDS011;4092;47.876;9.372;2022-10-18T07:23:06;3.47;;;2.23;;
8098;SDS011;4092;47.876;9.372;2022-10-18T07:25:35;3.93;;;2.43;;
8098;SDS011;4092;47.876;9.372;2022-10-18T07:28:04;3.30;;;3.00;;
8098;SDS011;4092;47.876;9.372;2022-10-18T07:30:31;6.50;;;2.50;;
8098;SDS011;4092;47.876;9.372;2022-10-18T07:32:59;5.47;;;3.33;;
8098;SDS011;4092;47.876;9.372;2022-10-18T07:35:26;4.23;;;2.50;;
8098;SDS011;4092;47.876;9.372;2022-10-18T07:37:53;4.00;;;2.70;;
8098;SDS011;4092;47.876;9.372;2022-10-18T07:40:21;6.23;;;2.50;;
8098;SDS011;4092;47.876;9.372;2022-10-18T07:42:48;2.00;;;1.70;;
8098;SDS011;4092;47.876;9.372;2022-10-18T07:45:16;2.53;;;1.73;;
8098;SDS011;4092;47.876;9.372;2022-10-18T07:47:43;6.33;;;3.20;;
8098;SDS011;4092;47.876;9.372;2022-10-18T07:50:10;2.90;;;2.20;;
8098;SDS011;4092;47.876;9.372;2022-10-18T07:52:37;3.60;;;2.27;;
8098;SDS011;4092;47.876;9.372;2022-10-18T07:55:04;7.30;;;2.87;;
8098;SDS011;4092;47.876;9.372;2022-10-18T07:57:32;3.27;;;2.20;;
8098;SDS011;4092;47.876;9.372;2022-10-18T07:59:59;3.10;;;1.93;;
8098;SDS011;4092;47.876;9.372;2022-10-18T08:02:28;2.43;;;2.23;;
8098;SDS011;4092;47.876;9.372;2022-10-18T08:04:55;3.60;;;2.50;;
8098;SDS011;4092;47.876;9.372;2022-10-18T08:07:22;9.53;;;2.43;;
8098;SDS011;4092;47.876;9.372;2022-10-18T08:09:49;2.77;;;2.00;;
8098;SDS011;4092;47.876;9.372;2022-10-18T08:12:16;3.13;;;2.30;;
8098;SDS011;4092;47.876;9.372;2022-10-18T08:14:43;2.83;;;2.23;;
8098;SDS011;4092;47.876;9.372;2022-10-18T08:17:11;5.93;;;2.93;;
8098;SDS011;4092;47.876;9.372;2022-10-18T08:19:39;4.00;;;3.00;;
8098;SDS011;4092;47.876;9.372;2022-10-18T08:22:06;3.27;;;2.10;;
8098;SDS011;4092;47.876;9.372;2022-10-18T08:24:33;4.23;;;2.50;;
8098;SDS011;4092;47.876;9.372;2022-10-18T08:27:00;6.60;;;2.50;;
8098;SDS011;4092;47.876;9.372;2022-10-18T08:29:27;4.43;;;2.87;;
8098;SDS011;4092;47.876;9.372;2022-10-18T08:31:54;5.80;;;3.47;;
8098;SDS011;4092;47.876;9.372;2022-10-18T08:34:21;5.77;;;2.43;;
8098;SDS011;4092;47.876;9.372;2022-10-18T08:36:50;6.57;;;3.57;;
8098;SDS011;4092;47.876;9.372;2022-10-18T08:39:17;3.80;;;2.57;;
8098;SDS011;4092;47.876;9.372;2022-10-18T08:41:50;3.60;;;2.27;;
8098;SDS011;4092;47.876;9.372;2022-10-18T08:44:33;2.43;;;2.03;;
8098;SDS011;4092;47.876;9.372;2022-10-18T08:47:10;3.67;;;2.33;;
8098;SDS011;4092;47.876;9.372;2022-10-18T08:49:41;3.27;;;2.50;;
8098;SDS011;4092;47.876;9.372;2022-10-18T08:52:13;3.97;;;2.20;;
8098;SDS011;4092;47.876;9.372;2022-10-18T08:54:52;4.43;;;2.83;;
8098;SDS011;4092;47.876;9.372;2022-10-18T08:57:26;6.67;;;3.20;;
8098;SDS011;4092;47.876;9.372;2022-10-18T08:59:53;4.03;;;1.70;;
8098;SDS011;4092;47.876;9.372;2022-10-18T09:05:16;4.03;;;2.97;;
8098;SDS011;4092;47.876;9.372;2022-10-18T09:07:56;5.17;;;2.70;;
8098;SDS011;4092;47.876;9.372;2022-10-18T09:10:48;5.23;;;3.20;;
8098;SDS011;4092;47.876;9.372;2022-10-18T09:13:34;8.37;;;3.40;;
8098;SDS011;4092;47.876;9.372;2022-10-18T09:16:19;7.73;;;2.60;;
8098;SDS011;4092;47.876;9.372;2022-10-18T09:18:54;6.07;;;3.23;;
8098;SDS011;4092;47.876;9.372;2022-10-18T09:21:29;6.83;;;3.43;;
8098;SDS011;4092;47.876;9.372;2022-10-18T09:24:10;5.50;;;2.80;;
8098;SDS011;4092;47.876;9.372;2022-10-18T09:26:41;3.67;;;2.10;;
8098;SDS011;4092;47.876;9.372;2022-10-18T09:29:15;4.03;;;2.07;;
8098;SDS011;4092;47.876;9.372;2022-10-18T09:31:59;2.50;;;2.30;;
8098;SDS011;4092;47.876;9.372;2022-10-18T09:34:35;5.80;;;3.00;;
8098;SDS011;4092;47.876;9.372;2022-10-18T09:37:07;3.20;;;2.30;;
8098;SDS011;4092;47.876;9.372;2022-10-18T09:39:39;6.13;;;5.63;;
8098;SDS011;4092;47.876;9.372;2022-10-18T09:42:10;9.43;;;3.60;;
8098;SDS011;4092;47.876;9.372;2022-10-18T09:44:43;3.10;;;2.43;;
8098;SDS011;4092;47.876;9.372;2022-10-18T09:47:15;7.33;;;2.83;;
8098;SDS011;4092;47.876;9.372;2022-10-18T09:49:47;3.67;;;2.80;;
8098;SDS011;4092;47.876;9.372;2022-10-18T09:52:17;5.00;;;2.40;;
8098;SDS011;4092;47.876;9.372;2022-10-18T09:54:51;2.80;;;2.37;;
8098;SDS011;4092;47.876;9.372;2022-10-18T09:57:22;4.33;;;2.60;;
8098;SDS011;4092;47.876;9.372;2022-10-18T09:59:53;3.30;;;2.60;;
8098;SDS011;4092;47.876;9.372;2022-10-18T10:02:20;3.70;;;2.90;;
8098;SDS011;4092;47.876;9.372;2022-10-18T10:04:48;4.50;;;3.33;;
8098;SDS011;4092;47.876;9.372;2022-10-18T10:07:16;5.20;;;3.63;;
8098;SDS011;4092;47.876;9.372;2022-10-18T10:09:45;8.03;;;3.40;;
8098;SDS011;4092;47.876;9.372;2022-10-18T10:12:27;5.40;;;2.70;;
8098;SDS011;4092;47.876;9.372;2022-10-18T10:15:06;4.97;;;2.50;;
8098;SDS011;4092;47.876;9.372;2022-10-18T10:17:35;3.60;;;2.17;;
8098;SDS011;4092;47.876;9.372;2022-10-18T10:20:04;5.50;;;2.53;;
8098;SDS011;4092;47.876;9.372;2022-10-18T10:22:40;4.40;;;2.97;;
8098;SDS011;4092;47.876;9.372;2022-10-18T10:25:18;4.27;;;2.40;;
8098;SDS011;4092;47.876;9.372;2022-10-18T10:27:58;3.40;;;2.13;;
8098;SDS011;4092;47.876;9.372;2022-10-18T10:30:29;2.50;;;2.30;;
8098;SDS011;4092;47.876;9.372;2022-10-18T10:32:57;7.03;;;2.90;;
8098;SDS011;4092;47.876;9.372;2022-10-18T10:35:28;4.70;;;2.30;;
8098;SDS011;4092;47.876;9.372;2022-10-18T10:37:57;2.90;;;2.20;;
8098;SDS011;4092;47.876;9.372;2022-10-18T10:40:25;2.53;;;2.13;;
8098;SDS011;4092;47.876;9.372;2022-10-18T10:43:05;12.83;;;3.90;;
8098;SDS011;4092;47.876;9.372;2022-10-18T10:45:40;2.90;;;2.30;;
8098;SDS011;4092;47.876;9.372;2022-10-18T10:48:20;2.63;;;2.10;;
8098;SDS011;4092;47.876;9.372;2022-10-18T10:50:50;8.53;;;2.07;;
8098;SDS011;4092;47.876;9.372;2022-10-18T10:53:24;3.53;;;1.93;;
8098;SDS011;4092;47.876;9.372;2022-10-18T10:56:03;3.17;;;2.13;;
8098;SDS011;4092;47.876;9.372;2022-10-18T10:58:34;7.40;;;3.00;;
8098;SDS011;4092;47.876;9.372;2022-10-18T11:01:21;2.80;;;2.07;;
8098;SDS011;4092;47.876;9.372;2022-10-18T11:03:51;10.10;;;2.00;;
8098;SDS011;4092;47.876;9.372;2022-10-18T11:06:31;2.00;;;1.80;;
8098;SDS011;4092;47.876;9.372;2022-10-18T11:09:09;5.50;;;1.77;;
8098;SDS011;4092;47.876;9.372;2022-10-18T11:11:52;5.37;;;1.90;;
8098;SDS011;4092;47.876;9.372;2022-10-18T11:14:30;3.30;;;1.67;;
8098;SDS011;4092;47.876;9.372;2022-10-18T11:17:04;2.30;;;1.33;;
8098;SDS011;4092;47.876;9.372;2022-10-18T11:19:39;2.80;;;1.80;;
8098;SDS011;4092;47.876;9.372;2022-10-18T11:22:17;2.17;;;1.77;;
8098;SDS011;4092;47.876;9.372;2022-10-18T11:24:47;3.37;;;2.70;;
8098;SDS011;4092;47.876;9.372;2022-10-18T11:27:16;2.30;;;1.47;;
8098;SDS011;4092;47.876;9.372;2022-10-18T11:29:53;2.60;;;1.43;;
8098;SDS011;4092;47.876;9.372;2022-10-18T11:32:37;2.90;;;2.40;;
8098;SDS011;4092;47.876;9.372;2022-10-18T11:35:25;2.93;;;2.10;;
8098;SDS011;4092;47.876;9.372;2022-10-18T11:38:05;3.33;;;2.80;;
8098;SDS011;4092;47.876;9.372;2022-10-18T11:40:47;4.40;;;2.70;;
8098;SDS011;4092;47.876;9.372;2022-10-18T11:43:23;3.00;;;2.20;;
8098;SDS011;4092;47.876;9.372;2022-10-18T11:45:59;3.93;;;2.23;;
8098;SDS011;4092;47.876;9.372;2022-10-18T11:48:58;4.00;;;1.63;;
8098;SDS011;4092;47.876;9.372;2022-10-18T11:51:39;2.17;;;1.57;;
8098;SDS011;4092;47.876;9.372;2022-10-18T11:54:33;4.53;;;2.30;;
8098;SDS011;4092;47.876;9.372;2022-10-18T11:57:18;5.20;;;1.87;;
8098;SDS011;4092;47.876;9.372;2022-10-18T12:00:02;15.10;;;2.53;;
8098;SDS011;4092;47.876;9.372;2022-10-18T12:05:37;2.00;;;1.53;;
8098;SDS011;4092;47.876;9.372;2022-10-18T12:08:07;1.70;;;1.60;;
8098;SDS011;4092;47.876;9.372;2022-10-18T12:10:39;4.47;;;2.40;;
8098;SDS011;4092;47.876;9.372;2022-10-18T12:13:11;8.40;;;1.70;;
8098;SDS011;4092;47.876;9.372;2022-10-18T12:15:42;2.83;;;1.93;;
8098;SDS011;4092;47.876;9.372;2022-10-18T12:18:12;2.00;;;1.80;;
8098;SDS011;4092;47.876;9.372;2022-10-18T12:20:42;2.70;;;2.30;;
8098;SDS011;4092;47.876;9.372;2022-10-18T12:23:12;3.20;;;1.83;;
8098;SDS011;4092;47.876;9.372;2022-10-18T12:25:44;3.20;;;1.87;;
8098;SDS011;4092;47.876;9.372;2022-10-18T12:28:15;3.77;;;1.30;;
8098;SDS011;4092;47.876;9.372;2022-10-18T12:30:58;2.17;;;1.40;;
8098;SDS011;4092;47.876;9.372;2022-10-18T12:33:35;3.33;;;1.37;;
8098;SDS011;4092;47.876;9.372;2022-10-18T12:36:07;4.43;;;2.47;;
8098;SDS011;4092;47.876;9.372;2022-10-18T12:38:45;4.67;;;2.03;;
8098;SDS011;4092;47.876;9.372;2022-10-18T12:41:17;3.13;;;2.00;;
8098;SDS011;4092;47.876;9.372;2022-10-18T12:43:49;8.90;;;2.23;;
8098;SDS011;4092;47.876;9.372;2022-10-18T12:46:17;2.33;;;2.03;;
8098;SDS011;4092;47.876;9.372;2022-10-18T12:48:47;4.17;;;1.50;;
8098;SDS011;4092;47.876;9.372;2022-10-18T12:51:27;4.37;;;2.20;;
8098;SDS011;4092;47.876;9.372;2022-10-18T12:53:56;3.60;;;2.07;;
8098;SDS011;4092;47.876;9.372;2022-10-18T12:56:36;2.07;;;1.87;;
8098;SDS011;4092;47.876;9.372;2022-10-18T13:02:23;5.67;;;1.60;;
8098;SDS011;4092;47.876;9.372;2022-10-18T13:04:56;2.77;;;1.77;;
8098;SDS011;4092;47.876;9.372;2022-10-18T13:07:34;1.73;;;1.20;;
8098;SDS011;4092;47.876;9.372;2022-10-18T13:16:21;2.77;;;2.03;;
8098;SDS011;4092;47.876;9.372;2022-10-18T13:18:57;2.40;;;1.43;;
8098;SDS011;4092;47.876;9.372;2022-10-18T13:21:33;1.20;;;1.10;;
8098;SDS011;4092;47.876;9.372;2022-10-18T13:24:11;3.23;;;1.50;;
8098;SDS011;4092;47.876;9.372;2022-10-18T13:26:50;6.50;;;2.23;;
8098;SDS011;4092;47.876;9.372;2022-10-18T13:29:57;3.13;;;2.83;;
8098;SDS011;4092;47.876;9.372;2022-10-18T13:32:43;2.50;;;1.93;;
8098;SDS011;4092;47.876;9.372;2022-10-18T13:38:25;3.93;;;1.70;;
8098;SDS011;4092;47.876;9.372;2022-10-18T13:41:04;2.33;;;1.57;;
8098;SDS011;4092;47.876;9.372;2022-10-18T13:43:55;4.57;;;1.73;;
8098;SDS011;4092;47.876;9.372;2022-10-18T13:46:24;2.87;;;1.60;;
8098;SDS011;4092;47.876;9.372;2022-10-18T13:49:49;1.60;;;1.50;;
8098;SDS011;4092;47.876;9.372;2022-10-18T13:52:28;2.87;;;2.63;;
8098;SDS011;4092;47.876;9.372;2022-10-18T13:55:18;13.20;;;2.10;;
8098;SDS011;4092;47.876;9.372;2022-10-18T13:58:04;2.10;;;1.90;;
8098;SDS011;4092;47.876;9.372;2022-10-18T14:00:43;2.57;;;1.70;;
8098;SDS011;4092;47.876;9.372;2022-10-18T14:06:14;4.60;;;1.70;;
8098;SDS011;4092;47.876;9.372;2022-10-18T14:08:44;9.60;;;2.53;;
8098;SDS011;4092;47.876;9.372;2022-10-18T14:11:21;4.70;;;2.20;;
8098;SDS011;4092;47.876;9.372;2022-10-18T14:13:53;7.10;;;1.90;;
8098;SDS011;4092;47.876;9.372;2022-10-18T14:16:28;4.40;;;1.90;;
8098;SDS011;4092;47.876;9.372;2022-10-18T14:19:01;3.80;;;1.87;;
8098;SDS011;4092;47.876;9.372;2022-10-18T14:21:37;3.30;;;2.23;;
8098;SDS011;4092;47.876;9.372;2022-10-18T14:24:11;2.97;;;2.00;;
8098;SDS011;4092;47.876;9.372;2022-10-18T14:26:45;9.03;;;2.57;;
8098;SDS011;4092;47.876;9.372;2022-10-18T14:29:16;3.93;;;2.47;;
8098;SDS011;4092;47.876;9.372;2022-10-18T14:31:51;4.50;;;1.70;;
8098;SDS011;4092;47.876;9.372;2022-10-18T14:34:20;3.83;;;1.83;;
8098;SDS011;4092;47.876;9.372;2022-10-18T14:36:47;7.83;;;2.43;;
8098;SDS011;4092;47.876;9.372;2022-10-18T14:39:17;5.70;;;2.03;;
8098;SDS011;4092;47.876;9.372;2022-10-18T14:41:48;6.47;;;2.63;;
8098;SDS011;4092;47.876;9.372;2022-10-18T14:44:18;5.90;;;1.90;;
8098;SDS011;4092;47.876;9.372;2022-10-18T14:46:47;3.10;;;1.83;;
8098;SDS011;4092;47.876;9.372;2022-10-18T14:49:15;5.90;;;2.70;;
8098;SDS011;4092;47.876;9.372;2022-10-18T14:51:44;4.30;;;1.90;;
8098;SDS011;4092;47.876;9.372;2022-10-18T14:54:14;2.80;;;1.80;;
8098;SDS011;4092;47.876;9.372;2022-10-18T14:56:44;4.87;;;2.37;;
8098;SDS011;4092;47.876;9.372;2022-10-18T14:59:14;6.37;;;3.30;;
8098;SDS011;4092;47.876;9.372;2022-10-18T15:01:51;2.73;;;2.00;;
8098;SDS011;4092;47.876;9.372;2022-10-18T15:04:21;1.90;;;1.50;;
8098;SDS011;4092;47.876;9.372;2022-10-18T15:06:49;6.87;;;2.40;;
8098;SDS011;4092;47.876;9.372;2022-10-18T15:09:19;8.40;;;2.30;;
8098;SDS011;4092;47.876;9.372;2022-10-18T15:11:48;3.07;;;1.80;;
8098;SDS011;4092;47.876;9.372;2022-10-18T15:14:17;4.53;;;2.10;;
8098;SDS011;4092;47.876;9.372;2022-10-18T15:16:46;2.60;;;1.20;;
8098;SDS011;4092;47.876;9.372;2022-10-18T15:19:31;3.83;;;2.40;;
8098;SDS011;4092;47.876;9.372;2022-10-18T15:22:03;1.77;;;1.67;;
8098;SDS011;4092;47.876;9.372;2022-10-18T15:24:32;6.13;;;1.57;;
8098;SDS011;4092;47.876;9.372;2022-10-18T15:27:06;3.80;;;1.77;;
8098;SDS011;4092;47.876;9.372;2022-10-18T15:29:39;3.43;;;1.50;;
8098;SDS011;4092;47.876;9.372;2022-10-18T15:32:15;2.23;;;1.63;;
8098;SDS011;4092;47.876;9.372;2022-10-18T15:34:46;12.43;;;2.50;;
8098;SDS011;4092;47.876;9.372;2022-10-18T15:37:14;4.97;;;2.53;;
8098;SDS011;4092;47.876;9.372;2022-10-18T15:39:43;3.57;;;1.70;;
8098;SDS011;4092;47.876;9.372;2022-10-18T15:47:56;2.83;;;2.20;;
8098;SDS011;4092;47.876;9.372;2022-10-18T15:50:34;2.70;;;2.10;;
8098;SDS011;4092;47.876;9.372;2022-10-18T15:56:06;6.07;;;2.37;;
8098;SDS011;4092;47.876;9.372;2022-10-18T15:58:40;3.83;;;2.57;;
8098;SDS011;4092;47.876;9.372;2022-10-18T16:01:14;3.47;;;2.60;;
8098;SDS011;4092;47.876;9.372;2022-10-18T16:03:45;8.00;;;2.10;;
8098;SDS011;4092;47.876;9.372;2022-10-18T16:06:14;8.70;;;3.30;;
8098;SDS011;4092;47.876;9.372;2022-10-18T16:08:42;5.30;;;2.80;;
8098;SDS011;4092;47.876;9.372;2022-10-18T16:11:12;2.47;;;1.87;;
8098;SDS011;4092;47.876;9.372;2022-10-18T16:13:40;2.97;;;2.40;;